createdAt,value
2022-12-08T00:00:07.774Z,63.90
2022-12-08T00:01:06.146Z,72.80
2022-12-08T00:02:05.885Z,66.80
2022-12-08T00:03:05.197Z,65.70
2022-12-08T00:04:04.115Z,68.70
2022-12-08T00:05:04.476Z,65.90
2022-12-08T00:06:04.011Z,62.90
2022-12-08T00:07:04.157Z,66.90
2022-12-08T00:08:04.884Z,74.50
2022-12-08T00:09:04.175Z,67.90
2022-12-08T00:10:18.840Z,67.40
2022-12-08T00:11:06.440Z,68.60
2022-12-08T00:12:04.003Z,61.50
2022-12-08T00:13:04.087Z,69.70
2022-12-08T00:14:04.198Z,68.20
2022-12-08T00:15:04.484Z,62.10
2022-12-08T00:16:04.452Z,74.70
2022-12-08T00:17:04.032Z,68.00
2022-12-08T00:18:05.459Z,66.20
2022-12-08T00:19:04.544Z,69.10
2022-12-08T00:20:03.739Z,67.60
2022-12-08T00:21:03.857Z,67.70
2022-12-08T00:22:05.290Z,69.50
2022-12-08T00:23:04.182Z,78.90
2022-12-08T00:24:03.945Z,63.40
2022-12-08T00:25:04.044Z,71.10
2022-12-08T00:26:03.841Z,64.50
2022-12-08T00:27:09.086Z,62.30
2022-12-08T00:28:04.700Z,68.00
2022-12-08T00:29:07.582Z,69.30
2022-12-08T00:30:05.041Z,62.50
2022-12-08T00:31:05.756Z,72.20
2022-12-08T00:32:06.124Z,62.80
2022-12-08T00:33:03.728Z,68.40
2022-12-08T00:34:04.316Z,61.00
2022-12-08T00:35:04.760Z,68.80
2022-12-08T00:36:04.816Z,62.30
2022-12-08T00:37:04.268Z,65.80
2022-12-08T00:38:04.173Z,62.60
2022-12-08T00:39:04.070Z,71.40
2022-12-08T00:40:04.726Z,60.90
2022-12-08T00:41:05.211Z,58.90
2022-12-08T00:42:04.593Z,73.90
2022-12-08T00:43:03.900Z,65.10
2022-12-08T00:44:04.495Z,74.30
2022-12-08T00:45:04.391Z,61.70
2022-12-08T00:46:04.283Z,74.60
2022-12-08T00:47:04.650Z,60.40
2022-12-08T00:48:05.982Z,65.70
2022-12-08T00:49:04.241Z,61.70
2022-12-08T00:50:05.989Z,60.90
2022-12-08T00:51:04.621Z,63.20
2022-12-08T00:52:03.758Z,67.70
2022-12-08T00:53:05.002Z,63.50
2022-12-08T00:55:44.638Z,57.20
2022-12-08T00:56:32.351Z,59.40
2022-12-08T00:57:34.385Z,54.10
2022-12-08T00:58:32.748Z,56.80
2022-12-08T01:01:10.001Z,75.80
2022-12-08T01:03:27.344Z,63.90
2022-12-08T01:04:30.647Z,67.60
2022-12-08T01:05:23.616Z,65.60
2022-12-08T01:06:22.585Z,69.60
2022-12-08T01:07:22.690Z,57.50
2022-12-08T01:08:22.552Z,58.30
2022-12-08T01:09:22.623Z,54.60
2022-12-08T01:10:22.606Z,66.90
2022-12-08T01:11:22.999Z,70.60
2022-12-08T01:12:22.519Z,59.80
2022-12-08T01:13:23.346Z,56.10
2022-12-08T01:14:22.433Z,70.50
2022-12-08T01:15:23.519Z,56.80
2022-12-08T01:16:24.134Z,60.90
2022-12-08T01:17:22.246Z,71.70
2022-12-08T01:18:22.352Z,63.30
2022-12-08T01:19:22.287Z,66.60
2022-12-08T01:20:23.081Z,56.20
2022-12-08T01:21:22.901Z,65.70
2022-12-08T01:22:33.904Z,66.50
2022-12-08T01:23:22.480Z,60.00
2022-12-08T01:24:22.318Z,68.80
2022-12-08T01:25:22.504Z,56.70
2022-12-08T01:26:22.128Z,58.80
2022-12-08T01:27:22.120Z,57.40
2022-12-08T01:28:22.646Z,64.80
2022-12-08T01:29:22.132Z,58.60
2022-12-08T01:30:23.065Z,63.80
2022-12-08T01:31:22.234Z,73.50
2022-12-08T01:32:22.345Z,60.10
2022-12-08T01:33:22.303Z,57.00
2022-12-08T01:34:22.178Z,59.60
2022-12-08T01:35:22.892Z,59.30
2022-12-08T01:36:22.089Z,61.40
2022-12-08T01:37:22.295Z,64.50
2022-12-08T01:38:22.185Z,62.70
2022-12-08T01:39:22.108Z,69.60
2022-12-08T01:40:22.119Z,68.90
2022-12-08T01:41:22.019Z,69.70
2022-12-08T01:42:22.134Z,63.80
2022-12-08T01:43:21.921Z,67.10
2022-12-08T01:44:22.749Z,83.10
2022-12-08T01:45:22.087Z,61.40
2022-12-08T01:46:21.982Z,65.50
2022-12-08T01:47:21.955Z,57.40
2022-12-08T01:48:23.657Z,58.70
2022-12-08T01:49:21.847Z,62.20
2022-12-08T01:50:21.969Z,66.40
2022-12-08T01:51:21.961Z,60.20
2022-12-08T01:52:21.965Z,71.00
2022-12-08T01:53:21.978Z,63.80
2022-12-08T01:54:23.012Z,83.00
2022-12-08T01:55:22.230Z,68.10
2022-12-08T01:56:23.129Z,63.10
2022-12-08T01:57:23.152Z,58.10
2022-12-08T01:58:22.833Z,62.70
2022-12-08T01:59:24.474Z,52.70
2022-12-08T02:00:25.323Z,62.80
2022-12-08T02:01:37.544Z,63.10
2022-12-08T02:02:28.498Z,57.90
2022-12-08T02:03:27.995Z,66.40
2022-12-08T02:04:24.717Z,70.10
2022-12-08T02:05:22.303Z,62.40
2022-12-08T02:06:25.652Z,59.70
2022-12-08T02:07:22.489Z,70.30
2022-12-08T02:08:21.977Z,62.90
2022-12-08T02:09:21.877Z,62.80
2022-12-08T02:10:21.727Z,52.60
2022-12-08T02:11:22.239Z,56.10
2022-12-08T02:12:22.035Z,47.30
2022-12-08T02:13:21.715Z,56.30
2022-12-08T02:14:21.604Z,53.60
2022-12-08T02:15:21.590Z,53.00
2022-12-08T02:16:23.150Z,52.80
2022-12-08T02:17:22.245Z,59.60
2022-12-08T02:18:22.251Z,44.70
2022-12-08T02:19:31.760Z,44.70
2022-12-08T02:20:22.495Z,40.20
2022-12-08T02:21:21.704Z,50.60
2022-12-08T02:22:23.015Z,47.00
2022-12-08T02:23:22.351Z,48.20
2022-12-08T02:24:23.248Z,44.90
2022-12-08T02:25:21.419Z,51.50
2022-12-08T02:26:21.635Z,47.10
2022-12-08T02:27:21.428Z,48.90
2022-12-08T02:28:22.310Z,56.90
2022-12-08T02:29:22.884Z,55.90
2022-12-08T02:30:24.326Z,51.40
2022-12-08T02:31:23.781Z,50.40
2022-12-08T02:32:22.534Z,64.00
2022-12-08T02:33:32.730Z,55.90
2022-12-08T02:34:22.294Z,50.90
2022-12-08T02:35:24.286Z,58.30
2022-12-08T02:36:21.379Z,59.30
2022-12-08T02:37:21.189Z,45.60
2022-12-08T02:38:21.871Z,58.80
2022-12-08T02:39:22.119Z,55.70
2022-12-08T02:40:22.220Z,67.20
2022-12-08T02:41:23.559Z,61.00
2022-12-08T02:42:21.745Z,40.90
2022-12-08T02:43:21.348Z,49.70
2022-12-08T02:44:21.302Z,48.60
2022-12-08T02:45:21.673Z,42.90
2022-12-08T02:46:21.833Z,55.60
2022-12-08T02:47:21.549Z,50.00
2022-12-08T02:48:20.970Z,48.60
2022-12-08T02:49:21.170Z,54.10
2022-12-08T02:50:21.511Z,64.10
2022-12-08T02:51:21.169Z,46.80
2022-12-08T02:52:27.864Z,52.60
2022-12-08T02:53:21.191Z,58.90
2022-12-08T02:54:21.181Z,42.80
2022-12-08T02:57:22.649Z,51.00
2022-12-08T02:58:23.968Z,52.00
2022-12-08T02:59:23.610Z,52.80
2022-12-08T03:00:23.604Z,63.70
2022-12-08T03:01:22.619Z,55.90
2022-12-08T03:02:22.768Z,60.50
2022-12-08T03:03:22.374Z,37.00
2022-12-08T03:04:22.761Z,56.30
2022-12-08T03:05:22.834Z,53.40
2022-12-08T03:06:23.044Z,45.20
2022-12-08T03:07:23.192Z,42.10
2022-12-08T03:08:22.528Z,41.40
2022-12-08T03:09:22.484Z,54.20
2022-12-08T03:10:22.355Z,54.30
2022-12-08T03:11:23.081Z,44.90
2022-12-08T03:12:23.498Z,44.40
2022-12-08T03:13:22.586Z,43.40
2022-12-08T03:14:22.181Z,57.10
2022-12-08T03:15:23.104Z,58.10
2022-12-08T03:16:23.653Z,49.60
2022-12-08T03:17:22.192Z,48.30
2022-12-08T03:18:22.200Z,63.60
2022-12-08T03:19:22.213Z,35.40
2022-12-08T03:20:22.526Z,43.90
2022-12-08T03:21:22.025Z,48.50
2022-12-08T03:22:22.117Z,54.40
2022-12-08T03:23:23.354Z,51.00
2022-12-08T03:24:23.258Z,59.90
2022-12-08T03:25:22.120Z,38.00
2022-12-08T03:26:22.068Z,47.30
2022-12-08T03:27:22.047Z,50.10
2022-12-08T03:28:22.337Z,45.90
2022-12-08T03:29:22.491Z,47.00
2022-12-08T03:30:22.083Z,32.80
2022-12-08T03:31:22.176Z,46.40
2022-12-08T03:32:21.987Z,39.10
2022-12-08T03:33:22.002Z,45.10
2022-12-08T03:34:22.397Z,48.60
2022-12-08T03:35:22.127Z,39.60
2022-12-08T03:36:24.277Z,34.30
2022-12-08T03:37:22.856Z,46.10
2022-12-08T03:38:23.250Z,51.10
2022-12-08T03:39:31.858Z,41.60
2022-12-08T03:40:21.744Z,36.40
2022-12-08T03:54:10.236Z,46.00
2022-12-08T03:55:09.961Z,47.20
2022-12-08T03:56:10.996Z,44.50
2022-12-08T03:57:09.976Z,26.20
2022-12-08T03:58:09.981Z,31.70
2022-12-08T03:59:10.116Z,38.10
2022-12-08T04:00:11.004Z,31.40
2022-12-08T04:01:10.087Z,33.70
2022-12-08T04:02:09.966Z,27.90
2022-12-08T04:03:10.149Z,46.80
2022-12-08T04:04:10.650Z,39.60
2022-12-08T04:05:10.037Z,31.80
2022-12-08T04:06:10.870Z,34.80
2022-12-08T04:07:10.155Z,33.40
2022-12-08T04:08:09.721Z,36.70
2022-12-08T04:09:10.585Z,41.20
2022-12-08T04:10:10.677Z,40.20
2022-12-08T04:11:12.227Z,31.00
2022-12-08T04:12:10.914Z,26.90
2022-12-08T04:13:10.702Z,21.90
2022-12-08T04:14:10.189Z,25.20
2022-12-08T04:15:10.527Z,30.10
2022-12-08T04:16:09.743Z,34.40
2022-12-08T04:17:09.819Z,40.90
2022-12-08T04:18:09.828Z,26.60
2022-12-08T04:19:09.637Z,24.90
2022-12-08T04:20:10.953Z,19.40
2022-12-08T04:21:09.954Z,27.90
2022-12-08T04:22:11.587Z,24.40
2022-12-08T04:23:12.193Z,31.20
2022-12-08T04:24:17.630Z,28.10
2022-12-08T04:25:10.184Z,29.30
2022-12-08T04:26:09.980Z,24.30
2022-12-08T04:27:32.832Z,38.30
2022-12-08T04:28:11.002Z,36.70
2022-12-08T04:29:11.117Z,31.40
2022-12-08T04:30:11.211Z,29.20
2022-12-08T04:31:09.667Z,21.30
2022-12-08T04:32:09.580Z,29.00
2022-12-08T04:33:09.503Z,23.30
2022-12-08T04:34:11.183Z,26.60
2022-12-08T04:35:12.186Z,29.00
2022-12-08T04:36:12.822Z,25.80
2022-12-08T04:37:09.941Z,27.90
2022-12-08T04:38:09.449Z,30.80
2022-12-08T04:39:14.389Z,25.90
2022-12-08T04:40:17.153Z,28.40
2022-12-08T04:41:13.356Z,20.30
2022-12-08T04:42:10.581Z,20.00
2022-12-08T04:43:09.217Z,26.80
2022-12-08T05:11:18.998Z,28.90
2022-12-08T05:12:17.578Z,28.50
2022-12-08T05:13:16.871Z,24.40
2022-12-08T05:14:17.069Z,25.60
2022-12-08T05:15:17.098Z,29.50
2022-12-08T05:16:17.251Z,27.90
2022-12-08T05:17:17.375Z,29.40
2022-12-08T05:18:17.413Z,27.00
2022-12-08T05:19:16.914Z,27.20
2022-12-08T05:20:17.629Z,27.10
2022-12-08T05:21:17.246Z,27.60
2022-12-08T05:22:17.039Z,28.00
2022-12-08T05:23:17.118Z,27.20
2022-12-08T05:24:17.167Z,29.00
2022-12-08T05:25:17.057Z,32.80
2022-12-08T05:26:16.928Z,32.00
2022-12-08T05:27:16.885Z,32.90
2022-12-08T05:28:40.727Z,26.10
2022-12-08T05:29:18.806Z,25.50
2022-12-08T05:30:16.801Z,30.70
2022-12-08T05:31:17.300Z,32.60
2022-12-08T05:32:17.024Z,22.70
2022-12-08T05:33:16.804Z,36.60
2022-12-08T05:34:17.206Z,29.70
2022-12-08T05:35:17.529Z,33.60
2022-12-08T05:36:16.841Z,33.90
2022-12-08T05:37:16.733Z,21.20
2022-12-08T05:38:16.773Z,27.90
2022-12-08T05:39:16.711Z,25.40
2022-12-08T05:40:16.679Z,26.30
2022-12-08T05:41:16.857Z,32.60
2022-12-08T05:42:20.488Z,34.60
2022-12-08T05:43:17.914Z,25.20
2022-12-08T05:44:16.755Z,26.90
2022-12-08T05:45:17.543Z,33.50
2022-12-08T05:46:16.928Z,28.10
2022-12-08T05:47:19.773Z,23.30
2022-12-08T05:48:17.439Z,22.50
2022-12-08T05:49:17.403Z,21.50
2022-12-08T05:50:16.794Z,24.20
2022-12-08T05:51:17.449Z,27.70
2022-12-08T05:52:17.471Z,28.70
2022-12-08T05:53:17.430Z,33.10
2022-12-08T05:54:17.124Z,22.80
2022-12-08T05:55:16.361Z,31.70
2022-12-08T05:56:16.666Z,28.20
2022-12-08T05:57:16.587Z,25.50
2022-12-08T05:58:16.375Z,19.00
2022-12-08T05:59:16.366Z,18.50
2022-12-08T06:00:16.465Z,24.30
2022-12-08T06:01:17.939Z,20.30
2022-12-08T06:02:16.512Z,23.60
2022-12-08T06:03:16.383Z,17.80
2022-12-08T06:04:16.706Z,27.80
2022-12-08T06:05:16.434Z,24.40
2022-12-08T06:06:16.532Z,27.20
2022-12-08T06:07:17.242Z,22.30
2022-12-08T06:08:16.534Z,23.00
2022-12-08T06:09:16.621Z,24.00
2022-12-08T06:10:16.369Z,18.80
2022-12-08T06:11:16.779Z,21.20
2022-12-08T06:12:16.451Z,16.20
2022-12-08T06:13:16.186Z,20.20
2022-12-08T06:14:16.285Z,23.30
2022-12-08T06:15:17.203Z,20.70
2022-12-08T06:16:17.871Z,13.40
2022-12-08T06:17:16.293Z,23.10
2022-12-08T06:18:16.201Z,23.00
2022-12-08T06:19:16.413Z,18.80
2022-12-08T06:20:16.439Z,19.60
2022-12-08T06:21:16.935Z,22.10
2022-12-08T06:22:16.307Z,21.20
2022-12-08T06:23:22.561Z,13.40
2022-12-08T06:24:16.371Z,19.50
2022-12-08T06:25:16.648Z,17.00
2022-12-08T06:26:17.388Z,11.40
2022-12-08T06:27:16.358Z,19.80
2022-12-08T06:28:24.164Z,16.50
2022-12-08T06:29:18.210Z,15.30
2022-12-08T06:30:16.837Z,18.30
2022-12-08T06:31:15.995Z,17.20
2022-12-08T06:32:16.650Z,12.30
2022-12-08T06:33:18.254Z,14.40
2022-12-08T06:36:45.839Z,20.70
2022-12-08T06:37:45.212Z,20.50
2022-12-08T06:38:44.292Z,23.20
2022-12-08T06:39:44.909Z,16.00
2022-12-08T06:40:44.186Z,21.80
2022-12-08T06:41:44.135Z,24.70
2022-12-08T06:42:44.203Z,17.70
2022-12-08T06:43:44.232Z,20.30
2022-12-08T06:44:44.337Z,22.80
2022-12-08T06:45:45.524Z,22.00
2022-12-08T06:46:44.166Z,20.70
2022-12-08T06:47:44.187Z,16.80
2022-12-08T06:48:44.153Z,27.00
2022-12-08T06:49:45.082Z,26.20
2022-12-08T06:50:44.465Z,30.20
2022-12-08T06:51:44.094Z,22.20
2022-12-08T06:52:54.287Z,21.90
2022-12-08T06:53:45.038Z,27.80
2022-12-08T06:54:44.780Z,27.90
2022-12-08T06:55:58.698Z,23.50
2022-12-08T06:56:45.128Z,24.80
2022-12-08T06:57:44.944Z,37.70
2022-12-08T06:58:48.952Z,27.10
2022-12-08T06:59:45.057Z,34.20
2022-12-08T07:00:44.023Z,30.90
2022-12-08T07:01:43.941Z,32.90
2022-12-08T07:02:44.168Z,27.80
2022-12-08T07:03:45.007Z,28.30
2022-12-08T07:04:44.802Z,27.20
2022-12-08T07:05:43.774Z,30.70
2022-12-08T07:06:44.821Z,26.50
2022-12-08T07:07:43.816Z,36.50
2022-12-08T07:08:45.120Z,35.50
2022-12-08T07:09:44.446Z,26.30
2022-12-08T07:10:43.820Z,25.00
2022-12-08T07:11:43.840Z,31.50
2022-12-08T07:12:43.729Z,33.30
2022-12-08T07:13:44.040Z,21.90
2022-12-08T07:15:02.284Z,31.40
2022-12-08T07:15:43.858Z,23.40
2022-12-08T07:16:43.782Z,32.70
2022-12-08T07:17:43.656Z,31.20
2022-12-08T07:18:43.869Z,34.40
2022-12-08T07:20:10.296Z,32.80
2022-12-08T07:20:43.775Z,34.80
2022-12-08T07:21:43.783Z,33.70
2022-12-08T07:22:43.813Z,37.50
2022-12-08T07:23:43.811Z,30.80
2022-12-08T07:24:44.234Z,34.70
2022-12-08T07:25:44.755Z,34.30
2022-12-08T07:26:45.964Z,33.50
2022-12-08T07:27:44.266Z,29.30
2022-12-08T07:28:45.154Z,34.00
2022-12-08T07:29:45.094Z,25.60
2022-12-08T07:30:45.039Z,31.40
2022-12-08T07:31:48.248Z,35.60
2022-12-08T07:32:44.209Z,31.40
2022-12-08T07:33:44.597Z,30.30
2022-12-08T07:34:46.200Z,39.80
2022-12-08T07:35:49.617Z,30.90
2022-12-08T07:36:45.728Z,31.70
2022-12-08T07:37:47.275Z,34.20
2022-12-08T07:38:43.923Z,31.50
2022-12-08T07:39:47.626Z,31.80
2022-12-08T08:22:14.003Z,44.90
2022-12-08T08:26:13.326Z,41.90
2022-12-08T08:27:13.305Z,40.70
2022-12-08T08:28:09.742Z,42.70
2022-12-08T08:29:09.263Z,50.00
2022-12-08T08:30:16.611Z,43.00
2022-12-08T08:31:10.742Z,34.50
2022-12-08T08:32:12.053Z,31.80
2022-12-08T08:33:11.031Z,41.90
2022-12-08T08:34:12.750Z,46.30
2022-12-08T08:35:09.491Z,53.40
2022-12-08T08:36:09.082Z,48.20
2022-12-08T08:37:11.637Z,51.40
2022-12-08T08:38:08.819Z,44.60
2022-12-08T08:39:10.976Z,49.80
2022-12-08T08:40:09.336Z,44.40
2022-12-08T08:41:11.596Z,47.50
2022-12-08T08:42:11.099Z,39.00
2022-12-08T08:43:09.247Z,48.00
2022-12-08T08:44:09.784Z,55.90
2022-12-08T08:46:42.484Z,49.30
2022-12-08T08:47:36.008Z,51.40
2022-12-08T08:48:38.257Z,49.10
2022-12-08T08:49:36.034Z,48.70
2022-12-08T08:50:37.665Z,54.10
2022-12-08T08:51:36.832Z,56.90
2022-12-08T08:52:35.405Z,58.20
2022-12-08T08:53:37.262Z,52.30
2022-12-08T08:54:37.152Z,56.70
2022-12-08T08:56:02.835Z,52.30
2022-12-08T08:56:38.230Z,55.10
2022-12-08T08:57:41.341Z,56.50
2022-12-08T08:58:42.645Z,53.60
2022-12-08T08:59:37.743Z,54.50
2022-12-08T09:00:36.107Z,53.40
2022-12-08T09:01:35.516Z,55.80
2022-12-08T09:02:38.182Z,55.70
2022-12-08T09:03:43.802Z,53.60
2022-12-08T09:18:15.764Z,60.60
2022-12-08T09:33:46.865Z,58.40
2022-12-08T09:44:23.522Z,51.50
2022-12-08T09:50:28.040Z,56.40
2022-12-08T10:46:22.887Z,13.30
2022-12-08T10:47:06.749Z,12.50
2022-12-08T10:48:08.911Z,7.60
2022-12-08T10:49:11.677Z,9.70
2022-12-08T10:50:10.015Z,14.00
2022-12-08T10:51:05.663Z,9.90
2022-12-08T10:52:04.407Z,14.10
2022-12-08T10:53:08.841Z,10.70
2022-12-08T10:54:09.648Z,11.40
2022-12-08T10:55:08.025Z,14.50
2022-12-08T10:56:07.219Z,11.60
2022-12-08T10:57:12.962Z,14.70
2022-12-08T10:58:07.018Z,14.50
2022-12-08T10:59:07.145Z,14.30
2022-12-08T11:00:13.790Z,24.10
2022-12-08T11:01:06.042Z,20.40
2022-12-08T11:02:07.356Z,22.60
2022-12-08T11:03:14.141Z,27.10
2022-12-08T11:04:06.375Z,17.70
2022-12-08T11:05:12.820Z,17.90
2022-12-08T11:06:10.765Z,28.20
2022-12-08T11:07:06.803Z,25.50
2022-12-08T11:08:04.584Z,20.20
2022-12-08T11:09:24.945Z,18.90
2022-12-08T11:10:05.206Z,21.00
2022-12-08T11:11:04.863Z,24.60
2022-12-08T11:12:03.313Z,24.60
2022-12-08T11:13:06.137Z,29.30
2022-12-08T11:14:03.345Z,26.60
2022-12-08T11:15:03.441Z,24.40
2022-12-08T11:16:03.397Z,20.30
2022-12-08T11:17:05.376Z,13.30
2022-12-08T11:18:16.508Z,12.70
2022-12-08T11:19:06.056Z,17.60
2022-12-08T11:20:06.304Z,13.80
2022-12-08T11:21:08.223Z,11.50
2022-12-08T11:35:20.512Z,5.00
2022-12-08T11:36:18.848Z,5.10
2022-12-08T11:37:19.712Z,6.00
2022-12-08T11:38:22.569Z,5.50
2022-12-08T11:39:19.686Z,8.00
2022-12-08T11:40:18.914Z,4.40
2022-12-08T11:41:19.822Z,5.00
2022-12-08T11:42:18.519Z,6.50
2022-12-08T11:43:19.107Z,8.60
2022-12-08T11:44:19.511Z,6.70
2022-12-08T11:45:19.330Z,3.90
2022-12-08T11:46:18.782Z,7.50
2022-12-08T11:49:23.452Z,7.30
2022-12-08T11:50:18.035Z,6.70
2022-12-08T11:51:13.767Z,4.50
2022-12-08T11:52:13.742Z,5.20
2022-12-08T11:53:12.661Z,6.90
2022-12-08T11:54:12.762Z,9.00
2022-12-08T11:55:12.829Z,5.60
2022-12-08T11:56:13.058Z,7.40
2022-12-08T11:57:13.693Z,8.90
2022-12-08T11:58:12.608Z,5.40
2022-12-08T11:59:12.963Z,6.70
2022-12-08T12:00:12.518Z,6.60
2022-12-08T12:01:12.916Z,3.70
2022-12-08T12:02:12.815Z,6.80
2022-12-08T12:03:12.772Z,7.40
2022-12-08T12:04:12.516Z,4.70
2022-12-08T12:05:12.705Z,9.70
2022-12-08T12:06:53.123Z,7.40
2022-12-08T12:07:14.090Z,6.50
2022-12-08T12:08:12.570Z,5.70
2022-12-08T12:09:12.545Z,8.60
2022-12-08T12:10:12.450Z,9.20
2022-12-08T12:11:12.692Z,6.70
2022-12-08T12:12:12.367Z,7.40
2022-12-08T12:13:12.490Z,5.70
2022-12-08T12:14:12.306Z,6.40
2022-12-08T12:15:12.917Z,5.00
2022-12-08T12:16:13.356Z,3.50
2022-12-08T12:17:12.593Z,4.90
2022-12-08T12:18:16.660Z,3.20
2022-12-08T12:19:13.463Z,3.20
2022-12-08T12:20:13.174Z,3.60
2022-12-08T12:21:15.092Z,3.70
2022-12-08T12:22:12.344Z,6.20
2022-12-08T12:23:12.442Z,4.20
2022-12-08T12:24:12.370Z,4.60
2022-12-08T12:25:12.557Z,4.30
2022-12-08T12:26:13.180Z,6.20
2022-12-08T12:27:12.295Z,4.20
2022-12-08T12:28:13.395Z,4.30
2022-12-08T12:29:12.599Z,3.90
2022-12-08T12:30:13.184Z,4.10
2022-12-08T12:31:12.325Z,3.80
2022-12-08T12:33:59.203Z,6.20
2022-12-08T12:50:52.373Z,9.20
2022-12-08T12:53:28.740Z,6.10
2022-12-08T12:54:26.693Z,6.00
2022-12-08T12:55:27.944Z,6.50
2022-12-08T12:56:27.315Z,7.10
2022-12-08T12:57:27.455Z,6.50
2022-12-08T12:58:26.717Z,6.30
2022-12-08T12:59:26.535Z,4.80
2022-12-08T13:00:27.454Z,5.10
2022-12-08T13:01:28.316Z,8.70
2022-12-08T13:02:26.783Z,7.20
2022-12-08T13:03:26.482Z,10.80
2022-12-08T13:04:26.769Z,8.70
2022-12-08T13:05:29.560Z,7.40
2022-12-08T13:06:26.708Z,5.80
2022-12-08T13:07:27.452Z,7.20
2022-12-08T13:08:26.519Z,8.00
2022-12-08T13:09:27.323Z,12.00
2022-12-08T13:10:27.140Z,6.80
2022-12-08T13:11:26.639Z,7.00
2022-12-08T13:12:26.820Z,8.00
2022-12-08T13:13:26.836Z,9.50
2022-12-08T13:14:27.130Z,9.10
2022-12-08T13:15:27.621Z,9.00
2022-12-08T13:16:26.588Z,11.10
2022-12-08T13:17:26.367Z,6.80
2022-12-08T13:18:26.352Z,11.70
2022-12-08T13:19:26.355Z,9.90
2022-12-08T13:20:26.756Z,10.30
2022-12-08T13:21:26.697Z,11.70
2022-12-08T13:22:26.679Z,13.50
2022-12-08T13:23:26.284Z,13.60
2022-12-08T13:24:26.380Z,10.10
2022-12-08T13:25:26.633Z,12.10
2022-12-08T13:26:26.306Z,12.30
2022-12-08T13:27:27.502Z,9.80
2022-12-08T13:28:27.334Z,11.90
2022-12-08T13:29:26.118Z,5.30
2022-12-08T13:30:26.141Z,7.20
2022-12-08T13:31:26.242Z,8.80
2022-12-08T13:32:26.155Z,5.30
2022-12-08T13:33:26.174Z,6.10
2022-12-08T13:34:26.186Z,5.40
2022-12-08T13:35:27.388Z,7.60
2022-12-08T13:36:27.286Z,6.10
2022-12-08T13:37:26.983Z,3.40
2022-12-08T13:38:28.647Z,4.80
2022-12-08T13:39:26.068Z,5.20
2022-12-08T13:40:29.287Z,8.30
2022-12-08T13:43:12.834Z,10.90
2022-12-08T13:44:50.285Z,10.70
2022-12-08T13:47:34.897Z,7.40
2022-12-08T13:49:32.009Z,6.90
2022-12-08T13:51:15.925Z,6.90
2022-12-08T13:54:36.718Z,5.90
2022-12-08T13:57:30.665Z,4.10
2022-12-08T13:58:30.347Z,3.50
2022-12-08T13:59:29.636Z,6.50
2022-12-08T14:00:29.611Z,10.50
2022-12-08T14:01:30.323Z,13.10
2022-12-08T14:02:29.717Z,14.00
2022-12-08T14:03:29.798Z,15.60
2022-12-08T14:04:47.827Z,14.20
2022-12-08T14:06:03.427Z,11.60
2022-12-08T14:06:32.062Z,17.40
2022-12-08T14:07:29.586Z,15.10
2022-12-08T14:08:58.053Z,15.70
2022-12-08T14:09:30.539Z,18.90
2022-12-08T14:10:33.388Z,22.40
2022-12-08T14:11:35.091Z,14.50
2022-12-08T14:12:30.843Z,28.90
2022-12-08T14:13:33.485Z,16.30
2022-12-08T14:15:03.292Z,20.20
2022-12-08T14:15:37.729Z,24.20
2022-12-08T14:16:29.518Z,22.00
2022-12-08T14:17:29.245Z,22.00
2022-12-08T14:18:29.423Z,33.10
2022-12-08T14:19:30.484Z,24.00
2022-12-08T14:20:29.375Z,18.70
2022-12-08T14:21:35.836Z,15.40
2022-12-08T14:22:30.319Z,15.50
2022-12-08T14:23:29.335Z,12.20
2022-12-08T14:24:29.663Z,9.60
2022-12-08T14:25:29.123Z,14.20
2022-12-08T14:26:29.283Z,12.00
2022-12-08T14:27:29.344Z,11.40
2022-12-08T14:28:29.121Z,12.90
2022-12-08T14:29:31.635Z,12.30
2022-12-08T14:30:29.125Z,19.70
2022-12-08T14:31:30.002Z,16.80
2022-12-08T14:32:29.141Z,17.10
2022-12-08T14:33:29.062Z,16.80
2022-12-08T14:34:29.164Z,19.40
2022-12-08T14:35:29.064Z,20.90
2022-12-08T14:36:29.169Z,24.50
2022-12-08T14:37:29.888Z,26.00
2022-12-08T14:38:30.149Z,30.90
2022-12-08T14:39:29.001Z,24.60
2022-12-08T14:40:29.214Z,33.70
2022-12-08T14:41:28.890Z,24.60
2022-12-08T14:42:29.005Z,29.00
2022-12-08T14:43:28.920Z,39.90
2022-12-08T14:44:29.651Z,34.70
2022-12-08T14:45:28.832Z,42.90
2022-12-08T14:46:53.872Z,40.30
2022-12-08T14:47:29.164Z,45.20
2022-12-08T14:48:28.929Z,44.80
2022-12-08T14:49:28.938Z,55.80
2022-12-08T14:50:29.440Z,48.80
2022-12-08T14:51:29.981Z,41.00
2022-12-08T14:52:29.056Z,39.00
2022-12-08T14:53:32.329Z,42.40
2022-12-08T14:54:28.769Z,41.00
2022-12-08T14:55:28.908Z,41.00
2022-12-08T14:56:29.085Z,36.80
2022-12-08T14:57:28.610Z,44.90
2022-12-08T17:27:17.821Z,72.20
2022-12-08T17:27:30.797Z,70.90
2022-12-08T17:28:51.962Z,66.20
2022-12-08T17:29:31.844Z,69.20
2022-12-08T17:30:30.827Z,77.40
2022-12-08T17:31:31.583Z,81.80
2022-12-08T17:32:31.156Z,84.90
2022-12-08T17:33:30.746Z,83.70
2022-12-08T17:34:30.852Z,83.40
2022-12-08T17:35:30.747Z,87.70
2022-12-08T17:36:30.859Z,91.90
2022-12-08T17:37:30.878Z,85.70
2022-12-08T17:38:30.751Z,89.80
2022-12-08T17:39:33.037Z,70.40
2022-12-08T17:40:30.798Z,66.90
2022-12-08T17:41:30.706Z,70.60
2022-12-08T17:42:30.868Z,68.90
2022-12-08T17:43:30.846Z,74.80
2022-12-08T17:44:30.725Z,71.40
2022-12-08T17:45:30.679Z,79.70
2022-12-08T17:46:30.803Z,71.80
2022-12-08T17:47:31.122Z,78.10
2022-12-08T17:48:30.636Z,75.80
2022-12-08T17:49:30.637Z,73.30
2022-12-08T17:50:30.864Z,68.90
2022-12-08T17:51:30.878Z,70.90
2022-12-08T17:52:30.775Z,77.70
2022-12-08T17:53:35.869Z,72.30
2022-12-08T17:54:31.521Z,73.60
2022-12-08T17:55:30.577Z,69.20
2022-12-08T17:56:30.983Z,75.40
2022-12-08T17:57:30.500Z,72.60
2022-12-08T17:58:30.597Z,65.00
2022-12-08T17:59:30.564Z,80.00
2022-12-08T18:00:30.598Z,65.10
2022-12-08T18:01:30.637Z,61.90
2022-12-08T18:02:30.473Z,61.30
2022-12-08T18:03:30.641Z,63.20
2022-12-08T18:04:30.441Z,66.10
2022-12-08T18:05:30.432Z,64.70
2022-12-08T18:06:31.349Z,70.70
2022-12-08T18:07:30.357Z,72.90
2022-12-08T18:08:30.828Z,72.10
2022-12-08T18:09:30.490Z,76.60
2022-12-08T18:10:30.283Z,76.40
2022-12-08T18:11:30.442Z,68.70
2022-12-08T18:12:51.280Z,68.40
2022-12-08T18:13:30.406Z,79.40
2022-12-08T18:14:30.315Z,74.60
2022-12-08T18:15:33.551Z,69.20
2022-12-08T18:16:31.443Z,80.30
2022-12-08T18:17:30.417Z,64.30
2022-12-08T18:18:31.072Z,65.70
2022-12-08T18:19:30.254Z,66.90
2022-12-08T18:20:30.153Z,74.70
2022-12-08T18:21:30.531Z,76.60
2022-12-08T18:22:30.272Z,118.40
2022-12-08T18:23:30.257Z,116.80
2022-12-08T18:24:30.293Z,117.00
2022-12-08T18:25:30.185Z,122.60
2022-12-08T18:26:30.736Z,95.70
2022-12-08T18:27:30.201Z,99.10
2022-12-08T18:28:30.188Z,91.40
2022-12-08T18:29:30.138Z,71.50
2022-12-08T18:30:31.032Z,77.20
2022-12-08T18:31:30.691Z,92.00
2022-12-08T18:32:30.306Z,93.80
2022-12-08T18:33:30.139Z,78.50
2022-12-08T18:34:29.943Z,87.90
2022-12-08T18:35:30.046Z,112.00
2022-12-08T18:36:30.849Z,115.00
2022-12-08T18:37:30.274Z,94.40
2022-12-08T18:38:30.263Z,81.00
2022-12-08T18:39:30.254Z,97.20
2022-12-08T18:40:29.987Z,92.90
2022-12-08T18:41:30.311Z,88.60
2022-12-08T18:42:29.987Z,80.50
2022-12-08T18:43:29.906Z,81.80
2022-12-08T18:44:29.914Z,80.50
2022-12-08T18:45:30.004Z,76.90
2022-12-08T18:46:30.073Z,78.70
2022-12-08T18:47:30.008Z,69.60
2022-12-08T18:48:29.927Z,84.70
2022-12-08T18:49:29.991Z,86.00
2022-12-08T18:50:31.070Z,82.30
2022-12-08T18:51:29.845Z,84.70
2022-12-08T18:52:31.994Z,80.10
2022-12-08T18:53:29.754Z,87.80
2022-12-08T18:54:50.055Z,78.50
2022-12-08T18:55:31.319Z,82.80
2022-12-08T18:56:29.787Z,88.80
2022-12-08T18:57:29.785Z,98.10
2022-12-08T18:58:29.822Z,106.50
2022-12-08T18:59:29.683Z,106.20
2022-12-08T19:00:29.904Z,96.90
2022-12-08T19:01:29.798Z,91.20
2022-12-08T19:02:29.894Z,88.50
2022-12-08T19:03:29.719Z,96.20
2022-12-08T19:04:30.655Z,83.80
2022-12-08T19:05:29.861Z,84.00
2022-12-08T19:06:29.763Z,67.00
2022-12-08T19:07:29.844Z,68.70
2022-12-08T19:08:31.530Z,69.40
2022-12-08T19:09:29.764Z,78.30
2022-12-08T19:10:31.649Z,70.70
2022-12-08T20:55:53.929Z,29.10
2022-12-08T20:56:12.085Z,30.20
2022-12-08T20:57:11.375Z,32.10
2022-12-08T20:58:10.904Z,35.60
2022-12-08T20:59:10.803Z,37.30
2022-12-08T21:00:11.481Z,38.90
2022-12-08T21:01:13.122Z,46.20
2022-12-08T21:02:11.152Z,50.00
2022-12-08T21:03:11.922Z,53.20